Terminal Aerodrome Forecast
Issued by NWS

Home | Current Version | Previous Version | Text Only | Print | Product List | Glossary On
Versions: 1 2 3 4 5 6 7 8 9 10 11 12 13 14 15
547
FTPA31 PHFO 101732
TAFHNY
TAF
PHNY 101732Z 1018/1118 05005KT P6SM SKC
     FM102000 15008KT P6SM FEW025
     FM102200 25008KT P6SM FEW025 SCT045
     FM110600 05005KT P6SM SKC
      AMD NOT SKED=

USA.gov is the U.S. government's official web portal to all federal, state and local government web resources and services.